Time;durP1;ratioP1;P1;durP2;ratioP2;P2;SDS_P1;SDS_P2;PMS_P1;PMS_P2;Temp;Humidity;BMP_temperature;BMP_pressure;BME280_temperature;BME280_humidity;BME280_pressure;Samples;Min_cycle;Max_cycle;Signal;HPM_P1;HPM_P2
2021/12/03 00:00:19;;;;;;;9.05;3.38;;;;;;;;;;5032545;28;20029;-69
2021/12/03 00:02:45;;;;;;;9.88;3.80;;;;;;;;;;5030777;28;20112;-69
2021/12/03 00:05:11;;;;;;;11.07;4.88;;;;;;;;;;5032160;28;20064;-68
2021/12/03 00:07:40;;;;;;;8.38;4.30;;;;;;;;;;5032179;28;20018;-69
2021/12/03 00:10:07;;;;;;;9.55;5.53;;;;;;;;;;5032428;28;20017;-69
2021/12/03 00:12:34;;;;;;;14.57;6.15;;;;;;;;;;5032105;28;20025;-69
2021/12/03 00:15:00;;;;;;;17.10;8.07;;;;;;;;;;5032095;28;20390;-69
2021/12/03 00:17:25;;;;;;;11.60;6.38;;;;;;;;;;5032300;28;20160;-69
2021/12/03 00:19:52;;;;;;;15.30;7.82;;;;;;;;;;5031362;28;20387;-68
2021/12/03 00:22:18;;;;;;;11.05;7.00;;;;;;;;;;5032332;28;20021;-69
2021/12/03 00:24:44;;;;;;;13.05;6.88;;;;;;;;;;5031710;28;20033;-68
2021/12/03 00:27:10;;;;;;;13.15;6.50;;;;;;;;;;5032096;28;20028;-69
2021/12/03 00:29:36;;;;;;;12.50;6.32;;;;;;;;;;5032030;28;20087;-69
2021/12/03 00:32:02;;;;;;;13.25;6.07;;;;;;;;;;5030919;28;20053;-69
2021/12/03 00:34:28;;;;;;;11.93;5.72;;;;;;;;;;5031640;28;20029;-67
2021/12/03 00:36:55;;;;;;;9.25;4.93;;;;;;;;;;5031619;28;20025;-68
2021/12/03 00:39:21;;;;;;;13.68;5.15;;;;;;;;;;5031806;28;20029;-69
2021/12/03 00:41:52;;;;;;;9.27;5.50;;;;;;;;;;5031737;28;20033;-69
2021/12/03 00:44:20;;;;;;;10.63;5.55;;;;;;;;;;5031673;28;20049;-69
2021/12/03 00:46:46;;;;;;;12.20;5.63;;;;;;;;;;5031733;28;20105;-69
2021/12/03 00:49:12;;;;;;;10.15;5.78;;;;;;;;;;5031691;28;20029;-68
2021/12/03 00:51:38;;;;;;;12.10;5.78;;;;;;;;;;5031753;28;20610;-68
2021/12/03 00:54:03;;;;;;;12.05;5.65;;;;;;;;;;5031358;28;20030;-69
2021/12/03 00:56:29;;;;;;;9.88;5.22;;;;;;;;;;5031833;28;20033;-68
2021/12/03 00:58:55;;;;;;;10.57;5.70;;;;;;;;;;5031826;28;20026;-68
2021/12/03 01:01:21;;;;;;;9.70;5.63;;;;;;;;;;5031663;28;20052;-68
2021/12/03 01:03:47;;;;;;;10.40;6.15;;;;;;;;;;5031166;28;20100;-69
2021/12/03 01:06:13;;;;;;;11.23;6.18;;;;;;;;;;5031689;28;20057;-69
2021/12/03 01:08:39;;;;;;;10.25;6.05;;;;;;;;;;5031465;28;20065;-69
2021/12/03 01:11:07;;;;;;;12.35;6.03;;;;;;;;;;5031560;28;20036;-69
2021/12/03 01:13:33;;;;;;;13.73;6.03;;;;;;;;;;5031119;28;20398;-69
2021/12/03 01:16:00;;;;;;;10.20;5.93;;;;;;;;;;5031378;28;20026;-68
2021/12/03 01:18:26;;;;;;;13.35;6.65;;;;;;;;;;5030111;28;20510;-68
2021/12/03 01:20:52;;;;;;;15.90;7.03;;;;;;;;;;5031329;28;20080;-68
2021/12/03 01:23:18;;;;;;;12.52;7.32;;;;;;;;;;5031012;28;20091;-67
2021/12/03 01:25:44;;;;;;;16.95;7.78;;;;;;;;;;5031188;28;20040;-69
2021/12/03 01:28:12;;;;;;;16.63;6.53;;;;;;;;;;5029978;28;20080;-69
2021/12/03 01:30:38;;;;;;;14.05;7.38;;;;;;;;;;5031639;28;20475;-69
2021/12/03 01:33:06;;;;;;;17.67;9.32;;;;;;;;;;5033484;28;20056;-69
2021/12/03 01:35:32;;;;;;;14.85;8.95;;;;;;;;;;5033294;28;20029;-69
2021/12/03 01:37:58;;;;;;;21.65;9.40;;;;;;;;;;5033488;28;20441;-69
2021/12/03 01:40:25;;;;;;;17.30;9.88;;;;;;;;;;5034854;28;20029;-69
2021/12/03 01:42:52;;;;;;;20.60;9.70;;;;;;;;;;5034493;28;20032;-69
2021/12/03 01:45:30;;;;;;;21.27;9.70;;;;;;;;;;5034724;28;20030;-69
2021/12/03 01:47:56;;;;;;;15.57;7.75;;;;;;;;;;5034798;28;20029;-69
2021/12/03 01:50:28;;;;;;;16.15;8.77;;;;;;;;;;5034774;28;20030;-70
2021/12/03 01:52:54;;;;;;;13.93;7.93;;;;;;;;;;5034626;28;20325;-68
2021/12/03 01:55:21;;;;;;;19.52;9.48;;;;;;;;;;5034483;28;20025;-69
2021/12/03 01:57:47;;;;;;;17.27;8.68;;;;;;;;;;5034905;28;20390;-68
2021/12/03 02:00:16;;;;;;;14.10;7.85;;;;;;;;;;5033345;28;20116;-69
2021/12/03 02:02:42;;;;;;;14.70;8.00;;;;;;;;;;5034515;28;20030;-69
2021/12/03 02:05:08;;;;;;;14.45;7.47;;;;;;;;;;5034458;28;20026;-69
2021/12/03 02:07:34;;;;;;;16.27;7.47;;;;;;;;;;5034564;28;20026;-68
2021/12/03 02:10:00;;;;;;;14.20;7.32;;;;;;;;;;5034884;28;20562;-69
2021/12/03 02:12:26;;;;;;;19.73;8.35;;;;;;;;;;5033442;28;20065;-68
2021/12/03 02:14:52;;;;;;;14.90;7.03;;;;;;;;;;5034704;28;20037;-68
2021/12/03 02:17:18;;;;;;;13.40;7.10;;;;;;;;;;5034463;28;20057;-69
2021/12/03 02:19:44;;;;;;;16.33;7.95;;;;;;;;;;5034791;28;20033;-68
2021/12/03 02:22:10;;;;;;;15.35;8.30;;;;;;;;;;5034661;28;20099;-69
2021/12/03 02:24:36;;;;;;;17.38;9.25;;;;;;;;;;5034667;28;20044;-70
2021/12/03 02:27:03;;;;;;;22.52;9.23;;;;;;;;;;5035474;28;20032;-68
2021/12/03 02:29:30;;;;;;;17.08;8.07;;;;;;;;;;5034839;28;20372;-69
2021/12/03 02:31:58;;;;;;;17.40;9.18;;;;;;;;;;5034438;28;20044;-69
2021/12/03 02:34:24;;;;;;;15.68;8.25;;;;;;;;;;5034008;28;20532;-69
2021/12/03 02:36:50;;;;;;;17.92;8.55;;;;;;;;;;5034042;28;20108;-69
2021/12/03 02:39:16;;;;;;;23.83;9.80;;;;;;;;;;5034029;28;20029;-69
2021/12/03 02:41:42;;;;;;;20.45;10.10;;;;;;;;;;5033822;28;20115;-69
2021/12/03 02:44:09;;;;;;;17.08;10.40;;;;;;;;;;5032552;28;20021;-69
2021/12/03 02:46:35;;;;;;;18.98;9.73;;;;;;;;;;5033895;28;20038;-67
2021/12/03 02:49:00;;;;;;;20.35;9.65;;;;;;;;;;5033906;28;20025;-68
2021/12/03 02:51:26;;;;;;;28.23;11.25;;;;;;;;;;5033553;28;20030;-68
2021/12/03 02:53:53;;;;;;;21.15;9.63;;;;;;;;;;5033269;28;20104;-69
2021/12/03 02:56:19;;;;;;;23.98;11.30;;;;;;;;;;5032931;28;20029;-68
2021/12/03 02:58:45;;;;;;;24.25;11.27;;;;;;;;;;5033820;28;20067;-68
2021/12/03 03:01:11;;;;;;;19.00;10.02;;;;;;;;;;5033401;28;20044;-69
2021/12/03 03:03:37;;;;;;;23.17;11.10;;;;;;;;;;5033020;28;20029;-69
2021/12/03 03:06:04;;;;;;;27.50;11.82;;;;;;;;;;5033209;28;20032;-70
2021/12/03 03:08:31;;;;;;;22.13;10.50;;;;;;;;;;5033192;28;20029;-69
2021/12/03 03:10:58;;;;;;;18.83;10.55;;;;;;;;;;5033319;28;20026;-68
2021/12/03 03:13:24;;;;;;;21.50;11.38;;;;;;;;;;5032976;28;20041;-69
2021/12/03 03:15:50;;;;;;;24.15;12.65;;;;;;;;;;5031910;28;20056;-69
2021/12/03 03:18:19;;;;;;;22.58;12.45;;;;;;;;;;5033186;28;20029;-69
2021/12/03 03:20:45;;;;;;;23.38;13.00;;;;;;;;;;5033057;28;20112;-68
2021/12/03 03:23:13;;;;;;;24.85;12.40;;;;;;;;;;5032774;28;20148;-68
2021/12/03 03:25:40;;;;;;;22.15;11.80;;;;;;;;;;5033124;28;20418;-69
2021/12/03 03:28:06;;;;;;;31.17;13.23;;;;;;;;;;5033209;28;20487;-69
2021/12/03 03:30:33;;;;;;;25.83;12.68;;;;;;;;;;5033230;28;20095;-69
2021/12/03 03:32:59;;;;;;;23.83;11.65;;;;;;;;;;5032858;28;20116;-68
2021/12/03 03:35:25;;;;;;;30.63;14.52;;;;;;;;;;5032557;28;20036;-68
2021/12/03 03:37:51;;;;;;;26.83;11.38;;;;;;;;;;5032943;28;20033;-68
2021/12/03 03:40:17;;;;;;;26.08;12.07;;;;;;;;;;5032894;28;20029;-68
2021/12/03 03:42:43;;;;;;;25.85;13.38;;;;;;;;;;5032793;28;20034;-68
2021/12/03 03:45:12;;;;;;;20.73;10.23;;;;;;;;;;5032528;28;20036;-68
2021/12/03 03:47:38;;;;;;;22.75;11.75;;;;;;;;;;5032674;28;20048;-68
2021/12/03 03:50:04;;;;;;;25.15;12.45;;;;;;;;;;5032477;28;20101;-68
2021/12/03 03:52:31;;;;;;;22.42;12.20;;;;;;;;;;5032768;28;20105;-68
2021/12/03 03:54:57;;;;;;;23.63;11.25;;;;;;;;;;5032748;28;20036;-68
2021/12/03 03:57:23;;;;;;;18.92;10.88;;;;;;;;;;5031131;28;20029;-68
2021/12/03 03:59:49;;;;;;;24.23;12.23;;;;;;;;;;5031223;28;20029;-69
2021/12/03 04:02:16;;;;;;;25.85;11.88;;;;;;;;;;5032140;28;20037;-68
2021/12/03 04:04:41;;;;;;;22.58;11.60;;;;;;;;;;5032214;28;20032;-68
2021/12/03 04:07:07;;;;;;;23.42;11.13;;;;;;;;;;5031128;28;20021;-69
2021/12/03 04:09:33;;;;;;;20.45;10.98;;;;;;;;;;5032111;28;20045;-68
2021/12/03 04:11:59;;;;;;;19.02;9.93;;;;;;;;;;5032314;28;20033;-68
2021/12/03 04:14:25;;;;;;;19.33;9.95;;;;;;;;;;5031979;28;20569;-68
2021/12/03 04:16:51;;;;;;;16.30;9.93;;;;;;;;;;5032159;28;20032;-69
2021/12/03 04:19:18;;;;;;;18.52;9.68;;;;;;;;;;5031939;28;20109;-68
2021/12/03 04:21:44;;;;;;;16.90;9.90;;;;;;;;;;5031963;28;20053;-68
2021/12/03 04:24:11;;;;;;;18.65;10.52;;;;;;;;;;5054086;22;20052;-74
2021/12/03 04:26:37;;;;;;;17.98;10.43;;;;;;;;;;5052157;28;20033;-73
2021/12/03 04:29:03;;;;;;;16.45;9.88;;;;;;;;;;5052240;28;20021;-73
2021/12/03 04:31:29;;;;;;;17.52;9.00;;;;;;;;;;5052194;28;20021;-72
2021/12/03 04:33:55;;;;;;;21.20;10.13;;;;;;;;;;5051972;28;20119;-72
2021/12/03 04:36:22;;;;;;;18.40;9.73;;;;;;;;;;5051946;28;20020;-72
2021/12/03 04:38:48;;;;;;;22.23;10.27;;;;;;;;;;5051772;28;20032;-72
2021/12/03 04:41:14;;;;;;;18.65;9.68;;;;;;;;;;5050721;28;20021;-73
2021/12/03 04:43:40;;;;;;;19.05;9.48;;;;;;;;;;5051540;28;20167;-72
2021/12/03 04:46:06;;;;;;;18.17;9.75;;;;;;;;;;5051691;28;20108;-73
2021/12/03 04:48:32;;;;;;;20.50;9.68;;;;;;;;;;5050346;28;20605;-72
2021/12/03 04:50:59;;;;;;;15.90;9.45;;;;;;;;;;5051790;28;20478;-72
2021/12/03 04:53:25;;;;;;;21.35;9.30;;;;;;;;;;5051334;28;20041;-73
2021/12/03 04:55:51;;;;;;;16.88;8.63;;;;;;;;;;5051757;28;20025;-73
2021/12/03 04:58:18;;;;;;;14.23;7.80;;;;;;;;;;5051760;28;20045;-73
2021/12/03 05:00:49;;;;;;;18.23;9.57;;;;;;;;;;5051673;28;20037;-73
2021/12/03 05:03:15;;;;;;;;;;;;;;;;;;5051694;28;20040;-73
2021/12/03 05:05:54;;;;;;;15.48;8.35;;;;;;;;;;5051812;28;20286;-73
2021/12/03 05:08:20;;;;;;;16.77;8.35;;;;;;;;;;5054363;28;20116;-75
2021/12/03 05:10:46;;;;;;;17.17;8.77;;;;;;;;;;5055784;28;20025;-72
2021/12/03 05:13:14;;;;;;;17.05;9.35;;;;;;;;;;5055355;28;20028;-72
2021/12/03 05:15:40;;;;;;;20.17;8.23;;;;;;;;;;5055209;28;20079;-72
2021/12/03 05:18:07;;;;;;;19.15;8.43;;;;;;;;;;5053886;28;20060;-74
2021/12/03 05:20:33;;;;;;;14.48;8.25;;;;;;;;;;5054202;28;20036;-72
2021/12/03 05:22:59;;;;;;;17.67;9.15;;;;;;;;;;5053871;28;20033;-74
2021/12/03 05:25:25;;;;;;;21.58;9.48;;;;;;;;;;5055170;28;20448;-72
2021/12/03 05:27:52;;;;;;;16.15;7.35;;;;;;;;;;5053793;28;20117;-72
2021/12/03 05:30:18;;;;;;;14.68;7.95;;;;;;;;;;5055136;28;20509;-72
2021/12/03 05:32:44;;;;;;;17.60;8.82;;;;;;;;;;5054818;28;20053;-73
2021/12/03 05:35:11;;;;;;;16.33;7.72;;;;;;;;;;5053597;28;20474;-73
2021/12/03 05:37:37;;;;;;;13.52;7.88;;;;;;;;;;5055007;28;20091;-72
2021/12/03 05:40:04;;;;;;;17.35;7.80;;;;;;;;;;5054917;28;20025;-74
2021/12/03 05:42:30;;;;;;;19.13;8.25;;;;;;;;;;5054842;28;20528;-73
2021/12/03 05:44:58;;;;;;;14.30;7.47;;;;;;;;;;5054647;28;20107;-74
2021/12/03 05:47:24;;;;;;;11.40;7.03;;;;;;;;;;5054630;28;20029;-73
2021/12/03 05:49:50;;;;;;;12.60;7.65;;;;;;;;;;5054790;28;20029;-73
2021/12/03 05:52:16;;;;;;;13.38;7.53;;;;;;;;;;5054759;28;20029;-73
2021/12/03 05:54:43;;;;;;;14.95;7.05;;;;;;;;;;5053047;28;20031;-73
2021/12/03 05:57:09;;;;;;;14.93;7.32;;;;;;;;;;5053635;28;20039;-73
2021/12/03 05:59:35;;;;;;;13.35;6.95;;;;;;;;;;5054956;28;20409;-73
2021/12/03 06:02:01;;;;;;;12.32;6.95;;;;;;;;;;5055801;28;20029;-68
2021/12/03 06:04:27;;;;;;;12.98;7.18;;;;;;;;;;5055103;28;20029;-73
2021/12/03 06:06:53;;;;;;;11.73;6.38;;;;;;;;;;5055751;28;20025;-73
2021/12/03 06:09:19;;;;;;;13.02;6.40;;;;;;;;;;5054595;28;20398;-72
2021/12/03 06:11:46;;;;;;;10.52;6.60;;;;;;;;;;5054407;28;20384;-72
2021/12/03 06:14:12;;;;;;;11.43;5.90;;;;;;;;;;5053955;28;20040;-72
2021/12/03 06:16:38;;;;;;;9.98;5.72;;;;;;;;;;5053936;28;20068;-72
2021/12/03 06:19:04;;;;;;;9.55;5.53;;;;;;;;;;5053085;28;20028;-72
2021/12/03 06:21:30;;;;;;;11.07;6.43;;;;;;;;;;5053966;28;20040;-71
2021/12/03 06:23:56;;;;;;;13.35;7.03;;;;;;;;;;5053423;28;20029;-73
2021/12/03 06:26:22;;;;;;;12.05;7.35;;;;;;;;;;5053851;28;20039;-73
2021/12/03 06:28:48;;;;;;;13.15;6.40;;;;;;;;;;5053525;28;20049;-72
2021/12/03 06:31:14;;;;;;;10.73;5.90;;;;;;;;;;5051797;28;20025;-73
2021/12/03 06:33:40;;;;;;;7.78;4.93;;;;;;;;;;5052153;28;20115;-73
2021/12/03 06:36:06;;;;;;;12.32;5.43;;;;;;;;;;5052181;28;20029;-73
2021/12/03 06:38:33;;;;;;;10.90;5.95;;;;;;;;;;5054129;28;20382;-73
2021/12/03 06:40:59;;;;;;;11.60;5.65;;;;;;;;;;5053979;28;20025;-73
2021/12/03 06:43:25;;;;;;;12.05;5.88;;;;;;;;;;5053633;28;20116;-73
2021/12/03 06:45:55;;;;;;;11.73;5.50;;;;;;;;;;5091579;22;20163;-74
2021/12/03 06:48:21;;;;;;;9.70;5.20;;;;;;;;;;5032937;28;20024;-73
2021/12/03 06:50:49;;;;;;;8.57;4.70;;;;;;;;;;5032926;28;20022;-73
2021/12/03 06:53:16;;;;;;;13.15;4.15;;;;;;;;;;5032172;28;20074;-74
2021/12/03 07:00:56;;;;;;;11.40;5.00;;;;;;;;;;5070357;28;20079;-68
2021/12/03 07:03:23;;;;;;;7.03;4.38;;;;;;;;;;5072775;28;20478;-68
2021/12/03 07:05:49;;;;;;;8.40;4.55;;;;;;;;;;5073446;28;20028;-68
2021/12/03 07:08:15;;;;;;;8.82;5.38;;;;;;;;;;5073326;28;20028;-70
2021/12/03 07:10:41;;;;;;;8.23;4.22;;;;;;;;;;5053870;28;20033;-70
2021/12/03 07:13:07;;;;;;;10.82;5.03;;;;;;;;;;5052735;28;20118;-70
2021/12/03 07:15:33;;;;;;;9.95;5.25;;;;;;;;;;5052937;28;20029;-68
2021/12/03 07:17:59;;;;;;;14.32;5.40;;;;;;;;;;5052750;28;20029;-68
2021/12/03 07:20:26;;;;;;;9.52;4.95;;;;;;;;;;5052752;28;20029;-68
2021/12/03 07:22:52;;;;;;;10.80;5.25;;;;;;;;;;5052887;28;20033;-68
2021/12/03 07:25:18;;;;;;;13.93;5.18;;;;;;;;;;5052732;28;20060;-68
2021/12/03 07:27:44;;;;;;;14.70;6.10;;;;;;;;;;5052635;28;20021;-68
2021/12/03 07:30:11;;;;;;;7.80;4.45;;;;;;;;;;5052475;28;20028;-68
2021/12/03 07:32:37;;;;;;;10.70;5.25;;;;;;;;;;5052905;28;20108;-68
2021/12/03 07:35:04;;;;;;;7.70;4.47;;;;;;;;;;5052870;28;20075;-68
2021/12/03 07:37:30;;;;;;;9.80;5.53;;;;;;;;;;5051186;28;20033;-67
2021/12/03 07:40:00;;;;;;;8.45;3.80;;;;;;;;;;5051378;28;20032;-67
2021/12/03 07:42:26;;;;;;;8.32;4.13;;;;;;;;;;5051415;28;20041;-68
2021/12/03 07:44:52;;;;;;;10.38;4.22;;;;;;;;;;5052175;28;20123;-67
2021/12/03 07:47:18;;;;;;;9.07;3.67;;;;;;;;;;5052295;28;20028;-67
2021/12/03 07:49:46;;;;;;;10.00;4.30;;;;;;;;;;5051346;28;20021;-67
2021/12/03 07:52:12;;;;;;;8.82;4.15;;;;;;;;;;5048610;28;20025;-69
2021/12/03 07:54:39;;;;;;;5.90;3.58;;;;;;;;;;5030623;28;20026;-67
2021/12/03 07:57:05;;;;;;;7.18;3.45;;;;;;;;;;5030576;28;20117;-67
2021/12/03 07:59:31;;;;;;;8.95;3.33;;;;;;;;;;5028786;28;20494;-67
2021/12/03 08:01:57;;;;;;;8.10;3.55;;;;;;;;;;5031156;28;20040;-67
2021/12/03 08:04:23;;;;;;;5.80;2.72;;;;;;;;;;5030810;28;20030;-67
2021/12/03 08:06:52;;;;;;;6.22;2.72;;;;;;;;;;5050442;28;20371;-67
2021/12/03 08:09:19;;;;;;;7.13;2.97;;;;;;;;;;5050068;28;20402;-66
2021/12/03 08:11:45;;;;;;;4.35;3.00;;;;;;;;;;5049928;28;20033;-67
2021/12/03 08:14:11;;;;;;;6.28;2.53;;;;;;;;;;5050251;28;20029;-67
2021/12/03 08:16:37;;;;;;;5.60;2.50;;;;;;;;;;5051173;28;20475;-67
2021/12/03 08:19:03;;;;;;;5.07;2.65;;;;;;;;;;5051607;28;20468;-68
2021/12/03 08:21:29;;;;;;;5.43;2.75;;;;;;;;;;5051661;28;20508;-68
2021/12/03 08:23:56;;;;;;;9.32;2.63;;;;;;;;;;5051566;28;20021;-68
2021/12/03 08:26:22;;;;;;;5.72;2.55;;;;;;;;;;5051779;28;20484;-68
2021/12/03 08:28:48;;;;;;;6.97;2.92;;;;;;;;;;5051644;28;20029;-68
2021/12/03 08:31:15;;;;;;;6.00;2.78;;;;;;;;;;5050686;28;20070;-70
2021/12/03 08:33:41;;;;;;;10.32;3.33;;;;;;;;;;5051171;28;20029;-71
2021/12/03 08:36:07;;;;;;;28.90;13.48;;;;;;;;;;5050403;28;20028;-72
2021/12/03 08:38:33;;;;;;;84.05;35.65;;;;;;;;;;5051756;28;20033;-71
2021/12/03 08:40:59;;;;;;;18.58;8.63;;;;;;;;;;5051197;28;20032;-71
2021/12/03 08:43:25;;;;;;;154.18;73.47;;;;;;;;;;5051351;28;20033;-72
2021/12/03 08:45:54;;;;;;;41.13;17.73;;;;;;;;;;5051519;28;20447;-72
2021/12/03 08:48:22;;;;;;;58.13;27.75;;;;;;;;;;5052517;28;20119;-73
2021/12/03 08:51:04;;;;;;;80.80;34.63;;;;;;;;;;5067342;28;20471;-72
2021/12/03 08:56:29;;;;;;;52.03;23.40;;;;;;;;;;5031422;28;20471;-71
2021/12/03 08:58:55;;;;;;;22.02;11.77;;;;;;;;;;5071010;28;20060;-73
2021/12/03 09:01:21;;;;;;;70.82;32.65;;;;;;;;;;5071558;28;20033;-74
2021/12/03 09:03:48;;;;;;;29.75;14.00;;;;;;;;;;5069827;28;20025;-75
2021/12/03 09:06:14;;;;;;;24.17;10.60;;;;;;;;;;5071330;28;20453;-74
2021/12/03 09:08:40;;;;;;;16.63;6.72;;;;;;;;;;5071245;28;20200;-73
2021/12/03 09:11:06;;;;;;;16.02;7.18;;;;;;;;;;5071331;28;20458;-74
2021/12/03 09:13:32;;;;;;;23.95;11.60;;;;;;;;;;5070855;28;20032;-74
2021/12/03 09:16:03;;;;;;;65.80;33.63;;;;;;;;;;5071356;28;20449;-74
2021/12/03 09:23:30;;;;;;;39.15;17.42;;;;;;;;;;5070761;28;20033;-72
2021/12/03 09:26:05;;;;;;;50.25;22.02;;;;;;;;;;5071576;28;20145;-70
2021/12/03 09:28:32;;;;;;;30.33;12.77;;;;;;;;;;5071048;28;20052;-72
2021/12/03 09:30:58;;;;;;;41.47;16.33;;;;;;;;;;5071142;28;20036;-70
2021/12/03 09:33:26;;;;;;;8.60;4.63;;;;;;;;;;5070938;28;20640;-73
2021/12/03 09:35:56;;;;;;;37.10;16.45;;;;;;;;;;5071133;28;20101;-71
2021/12/03 09:38:22;;;;;;;25.50;12.13;;;;;;;;;;5069853;28;20040;-71
2021/12/03 09:40:48;;;;;;;7.00;3.88;;;;;;;;;;5071115;28;20375;-71
2021/12/03 09:43:14;;;;;;;36.75;16.90;;;;;;;;;;5069337;28;20056;-71
2021/12/03 09:45:50;;;;;;;47.00;19.95;;;;;;;;;;5070933;28;20029;-69
2021/12/03 09:48:44;;;;;;;11.75;5.30;;;;;;;;;;5071283;28;20092;-71
2021/12/03 09:51:11;;;;;;;57.22;25.88;;;;;;;;;;5071099;28;20052;-71
2021/12/03 09:56:04;;;;;;;22.95;8.23;;;;;;;;;;5074434;28;20032;-71
2021/12/03 09:58:55;;;;;;;17.00;6.68;;;;;;;;;;5073956;28;20374;-71
2021/12/03 10:01:28;;;;;;;32.63;12.73;;;;;;;;;;5074363;28;20405;-71
2021/12/03 10:12:28;;;;;;;25.58;10.52;;;;;;;;;;5074354;28;20040;-71
2021/12/03 10:15:06;;;;;;;17.30;6.80;;;;;;;;;;5073964;28;20025;-70
2021/12/03 10:36:31;;;;;;;3.47;2.00;;;;;;;;;;5072084;28;20038;-70
2021/12/03 10:42:11;;;;;;;21.42;8.77;;;;;;;;;;5071965;28;20043;-70
2021/12/03 10:45:02;;;;;;;26.92;12.27;;;;;;;;;;5071307;28;20020;-70
2021/12/03 10:50:08;;;;;;;34.42;15.15;;;;;;;;;;5071876;28;20051;-70
2021/12/03 10:52:51;;;;;;;63.00;28.13;;;;;;;;;;5072118;28;20152;-71
2021/12/03 10:56:05;;;;;;;9.80;3.30;;;;;;;;;;5073053;28;20104;-71
2021/12/03 11:17:06;;;;;;;31.75;12.02;;;;;;;;;;5072861;28;20003;-70
2021/12/03 11:30:54;;;;;;;12.23;5.22;;;;;;;;;;5072531;28;20056;-70
2021/12/03 11:36:39;;;;;;;;;;;;;;;;;;;;;
2021/12/03 11:56:20;;;;;;;8.65;4.35;;;;;;;;;;5071985;28;20086;-71
2021/12/03 12:09:58;;;;;;;3.80;1.63;;;;;;;;;;5071865;28;20032;-71
2021/12/03 13:21:13;;;;;;;3.42;1.80;;;;;;;;;;5031302;28;20053;-72
2021/12/03 13:32:40;;;;;;;8.02;4.20;;;;;;;;;;5035426;28;19909;-73
2021/12/03 14:00:17;;;;;;;18.83;8.25;;;;;;;;;;5034498;28;20040;-72
2021/12/03 14:28:54;;;;;;;10.52;5.32;;;;;;;;;;5034349;28;20119;-72
2021/12/03 14:57:11;;;;;;;5.60;2.88;;;;;;;;;;5025442;28;20026;-72
2021/12/03 14:59:41;;;;;;;4.88;2.85;;;;;;;;;;5033217;28;20044;-73
2021/12/03 15:02:27;;;;;;;14.00;4.93;;;;;;;;;;5033282;28;20486;-72
2021/12/03 15:07:50;;;;;;;10.35;5.22;;;;;;;;;;5032557;28;20117;-73
2021/12/03 15:21:24;;;;;;;5.40;3.28;;;;;;;;;;5033307;28;20035;-72
2021/12/03 15:24:24;;;;;;;7.15;4.53;;;;;;;;;;5032824;28;20028;-72
2021/12/03 15:32:26;;;;;;;7.63;3.40;;;;;;;;;;5032776;28;20037;-73
2021/12/03 15:35:03;;;;;;;5.22;3.40;;;;;;;;;;5031031;28;20040;-73
2021/12/03 15:40:39;;;;;;;8.43;3.55;;;;;;;;;;5016756;28;20489;-73
2021/12/03 16:04:57;;;;;;;12.50;4.45;;;;;;;;;;5032702;28;20124;-73
2021/12/03 16:12:37;;;;;;;5.78;3.80;;;;;;;;;;5032272;28;20171;-73
2021/12/03 16:15:36;;;;;;;8.82;3.47;;;;;;;;;;5032351;28;20034;-73
2021/12/03 16:52:32;;;;;;;6.43;4.07;;;;;;;;;;5033045;28;20577;-72
2021/12/03 16:55:00;;;;;;;5.43;3.58;;;;;;;;;;5031185;28;20112;-73
2021/12/03 16:57:35;;;;;;;5.47;3.53;;;;;;;;;;5030294;28;20428;-73
2021/12/03 17:00:15;;;;;;;10.80;3.85;;;;;;;;;;5030869;28;20030;-73
2021/12/03 17:02:51;;;;;;;5.07;3.25;;;;;;;;;;5032342;28;20025;-72
2021/12/03 17:13:43;;;;;;;7.53;3.83;;;;;;;;;;5034182;28;20083;-73
2021/12/03 17:48:25;;;;;;;4.03;3.30;;;;;;;;;;5035034;28;20083;-73
2021/12/03 17:56:25;;;;;;;7.28;4.20;;;;;;;;;;5034639;28;20108;-73
2021/12/03 18:04:40;;;;;;;5.60;3.60;;;;;;;;;;5034375;28;20095;-73
2021/12/03 18:07:24;;;;;;;4.95;3.50;;;;;;;;;;5034132;28;20426;-73
2021/12/03 18:56:09;;;;;;;9.40;3.95;;;;;;;;;;5033691;28;20033;-73
2021/12/03 18:58:38;;;;;;;10.13;3.55;;;;;;;;;;5032954;28;20033;-74
2021/12/03 19:01:05;;;;;;;8.48;3.47;;;;;;;;;;5053613;22;20389;-70
2021/12/03 19:13:53;;;;;;;6.75;3.25;;;;;;;;;;5039905;28;20070;-70
2021/12/03 19:16:22;;;;;;;9.55;3.20;;;;;;;;;;5071384;28;20079;-70
2021/12/03 19:18:52;;;;;;;7.63;3.42;;;;;;;;;;5071068;28;20732;-69
2021/12/03 19:21:24;;;;;;;11.73;4.25;;;;;;;;;;5068785;28;20433;-69
2021/12/03 19:23:55;;;;;;;9.02;2.88;;;;;;;;;;5057566;28;20048;-70
2021/12/03 19:26:21;;;;;;;5.10;2.67;;;;;;;;;;5064924;28;20093;-69
2021/12/03 19:28:49;;;;;;;7.97;2.88;;;;;;;;;;5058438;28;20025;-68
2021/12/03 19:31:16;;;;;;;4.13;2.90;;;;;;;;;;5075992;28;20020;-70
2021/12/03 19:33:42;;;;;;;21.42;10.68;;;;;;;;;;5084206;28;20036;-69
2021/12/03 19:36:09;;;;;;;19.15;7.32;;;;;;;;;;5068694;28;20035;-70
2021/12/03 19:38:38;;;;;;;79.90;35.30;;;;;;;;;;5062471;28;20032;-70
2021/12/03 19:41:13;;;;;;;37.63;17.55;;;;;;;;;;5065371;28;20371;-71
2021/12/03 19:43:44;;;;;;;34.08;17.95;;;;;;;;;;5065663;28;20020;-71
2021/12/03 19:46:13;;;;;;;18.48;8.98;;;;;;;;;;5065772;28;20035;-70
2021/12/03 19:48:47;;;;;;;71.63;31.15;;;;;;;;;;5063992;28;20092;-69
2021/12/03 19:51:15;;;;;;;57.83;26.20;;;;;;;;;;5063408;28;20029;-69
2021/12/03 19:54:00;;;;;;;47.03;20.83;;;;;;;;;;5060609;28;20446;-69
2021/12/03 19:56:27;;;;;;;97.07;41.40;;;;;;;;;;5060923;28;20035;-70
2021/12/03 19:58:54;;;;;;;20.40;8.98;;;;;;;;;;5070671;28;20083;-70
2021/12/03 20:01:20;;;;;;;85.38;30.23;;;;;;;;;;5064225;28;20052;-68
2021/12/03 20:03:48;;;;;;;39.22;16.30;;;;;;;;;;5066094;28;20556;-69
2021/12/03 20:06:14;;;;;;;46.15;18.88;;;;;;;;;;5072606;28;20477;-68
2021/12/03 20:08:40;;;;;;;40.25;14.95;;;;;;;;;;5064910;28;20032;-69
2021/12/03 20:11:08;;;;;;;19.88;8.80;;;;;;;;;;5069651;28;20032;-67
2021/12/03 20:13:34;;;;;;;32.33;12.43;;;;;;;;;;5065754;28;20020;-70
2021/12/03 20:21:10;;;;;;;61.95;24.45;;;;;;;;;;5071932;28;20494;-70
2021/12/03 20:26:47;;;;;;;39.65;16.20;;;;;;;;;;5055960;28;20144;-70
2021/12/03 20:29:20;;;;;;;68.97;25.13;;;;;;;;;;5058775;28;20020;-70
2021/12/03 20:31:58;;;;;;;39.60;14.10;;;;;;;;;;5069989;28;20062;-69
2021/12/03 20:34:32;;;;;;;21.08;9.82;;;;;;;;;;5066305;28;20055;-68
2021/12/03 20:37:11;;;;;;;59.95;23.02;;;;;;;;;;5065408;28;20025;-68
2021/12/03 20:39:40;;;;;;;58.58;22.95;;;;;;;;;;5062393;28;20107;-68
2021/12/03 20:49:40;;;;;;;24.40;9.30;;;;;;;;;;5062519;28;20024;-70
2021/12/03 20:57:56;;;;;;;28.15;11.05;;;;;;;;;;5057896;28;20101;-66
2021/12/03 21:11:24;;;;;;;17.90;7.80;;;;;;;;;;5059396;28;20108;-68
2021/12/03 21:13:52;;;;;;;9.25;4.70;;;;;;;;;;5069751;28;20501;-71
2021/12/03 21:19:15;;;;;;;23.10;9.50;;;;;;;;;;5070211;28;20445;-70
2021/12/03 21:21:44;;;;;;;22.25;9.23;;;;;;;;;;5063686;28;20025;-71
2021/12/03 21:24:12;;;;;;;45.50;17.65;;;;;;;;;;5064386;28;20044;-71
2021/12/03 21:26:40;;;;;;;28.63;11.43;;;;;;;;;;5067816;28;20028;-68
2021/12/03 21:31:47;;;;;;;6.30;2.72;;;;;;;;;;5062316;28;20029;-70
2021/12/03 21:42:12;;;;;;;7.53;2.90;;;;;;;;;;5073214;28;20032;-71
2021/12/03 21:44:39;;;;;;;5.63;2.08;;;;;;;;;;5068205;28;20020;-69
2021/12/03 21:47:05;;;;;;;4.95;2.65;;;;;;;;;;5068377;28;20537;-70
2021/12/03 21:49:31;;;;;;;6.90;2.90;;;;;;;;;;5068081;28;20390;-68
2021/12/03 21:51:57;;;;;;;20.30;8.25;;;;;;;;;;5069870;28;20020;-69
2021/12/03 21:54:23;;;;;;;5.78;3.20;;;;;;;;;;5075497;28;20024;-68
2021/12/03 21:56:55;;;;;;;17.33;6.30;;;;;;;;;;5074934;28;20371;-68
2021/12/03 21:59:21;;;;;;;7.25;2.90;;;;;;;;;;5074619;28;20024;-68
2021/12/03 22:01:47;;;;;;;6.10;2.88;;;;;;;;;;5070557;28;20037;-67
2021/12/03 22:04:13;;;;;;;15.23;5.93;;;;;;;;;;5068365;28;20135;-70
2021/12/03 22:06:40;;;;;;;9.25;3.97;;;;;;;;;;5074555;28;20066;-71
2021/12/03 22:09:06;;;;;;;10.70;5.35;;;;;;;;;;5074761;28;20516;-71
2021/12/03 22:11:32;;;;;;;5.13;2.95;;;;;;;;;;5073330;28;20497;-69
2021/12/03 22:13:58;;;;;;;5.07;2.75;;;;;;;;;;5074256;28;20028;-68
2021/12/03 22:16:24;;;;;;;5.70;2.72;;;;;;;;;;5073461;28;20446;-69
2021/12/03 22:18:50;;;;;;;4.53;2.33;;;;;;;;;;5073448;28;20059;-72
2021/12/03 22:21:17;;;;;;;3.35;2.13;;;;;;;;;;5073413;28;20039;-71
2021/12/03 22:23:43;;;;;;;7.80;3.70;;;;;;;;;;5071482;28;20035;-68
2021/12/03 22:26:10;;;;;;;5.30;3.00;;;;;;;;;;5071437;28;20027;-68
2021/12/03 22:28:37;;;;;;;16.17;6.85;;;;;;;;;;5072808;28;20017;-68
2021/12/03 22:31:03;;;;;;;5.28;3.60;;;;;;;;;;5072921;28;20071;-68
2021/12/03 22:33:29;;;;;;;3.85;2.15;;;;;;;;;;5066981;28;20454;-68
2021/12/03 22:35:55;;;;;;;2.92;1.98;;;;;;;;;;5053125;28;20029;-67
2021/12/03 22:38:21;;;;;;;6.05;2.55;;;;;;;;;;5054081;28;20025;-67
2021/12/03 22:40:48;;;;;;;3.85;2.20;;;;;;;;;;5057635;28;20031;-68
2021/12/03 22:43:14;;;;;;;3.80;2.03;;;;;;;;;;5072851;28;20861;-67
2021/12/03 22:45:57;;;;;;;4.93;2.42;;;;;;;;;;5074103;28;20029;-69
2021/12/03 22:50:51;;;;;;;7.55;4.18;;;;;;;;;;5073497;28;20118;-67
2021/12/03 22:53:17;;;;;;;9.85;4.60;;;;;;;;;;5073281;28;20023;-67
2021/12/03 22:55:43;;;;;;;4.43;3.03;;;;;;;;;;5072781;28;20029;-68
2021/12/03 22:58:11;;;;;;;6.57;2.90;;;;;;;;;;5072738;28;20020;-68
2021/12/03 23:00:55;;;;;;;12.02;4.88;;;;;;;;;;5071404;28;20405;-68